sensor_id;sensor_type;location;lat;lon;timestamp;temperature;humidity
69324;DHT22;56470;47.350;8.718;2023-08-30T05:42:40;13.81;82.32
69324;DHT22;56470;47.350;8.718;2023-08-30T05:45:07;13.87;82.54
69324;DHT22;56470;47.350;8.718;2023-08-30T05:47:33;13.91;82.30
69324;DHT22;56470;47.350;8.718;2023-08-30T05:49:58;13.94;82.30
69324;DHT22;56470;47.350;8.718;2023-08-30T05:52:25;14.01;82.15
69324;DHT22;56470;47.350;8.718;2023-08-30T05:54:51;14.02;81.96
69324;DHT22;56470;47.350;8.718;2023-08-30T05:57:16;14.06;81.89
69324;DHT22;56470;47.350;8.718;2023-08-30T05:59:42;14.06;82.19
69324;DHT22;56470;47.350;8.718;2023-08-30T06:02:07;14.12;82.08
69324;DHT22;56470;47.350;8.718;2023-08-30T06:04:32;14.15;82.06
69324;DHT22;56470;47.350;8.718;2023-08-30T06:06:58;14.19;81.70
69324;DHT22;56470;47.350;8.718;2023-08-30T06:09:23;14.22;81.63
69324;DHT22;56470;47.350;8.718;2023-08-30T06:11:49;14.22;81.48
69324;DHT22;56470;47.350;8.718;2023-08-30T06:14:14;14.23;81.53
69324;DHT22;56470;47.350;8.718;2023-08-30T06:16:40;14.30;81.73
69324;DHT22;56470;47.350;8.718;2023-08-30T06:19:12;14.32;81.59
69324;DHT22;56470;47.350;8.718;2023-08-30T06:21:38;14.29;81.61
69324;DHT22;56470;47.350;8.718;2023-08-30T06:27:07;14.28;81.95
69324;DHT22;56470;47.350;8.718;2023-08-30T06:29:32;14.36;81.95
69324;DHT22;56470;47.350;8.718;2023-08-30T06:32:02;14.39;81.92
69324;DHT22;56470;47.350;8.718;2023-08-30T06:34:49;14.40;81.48
69324;DHT22;56470;47.350;8.718;2023-08-30T06:37:14;14.41;81.49
69324;DHT22;56470;47.350;8.718;2023-08-30T06:39:40;14.40;81.48
69324;DHT22;56470;47.350;8.718;2023-08-30T06:42:08;14.46;81.44
69324;DHT22;56470;47.350;8.718;2023-08-30T06:44:36;14.43;81.47
69324;DHT22;56470;47.350;8.718;2023-08-30T06:47:02;14.47;81.41
69324;DHT22;56470;47.350;8.718;2023-08-30T06:49:28;14.47;81.25
69324;DHT22;56470;47.350;8.718;2023-08-30T06:51:54;14.49;81.09
69324;DHT22;56470;47.350;8.718;2023-08-30T06:54:19;14.49;80.91
69324;DHT22;56470;47.350;8.718;2023-08-30T06:57:00;14.49;81.13
69324;DHT22;56470;47.350;8.718;2023-08-30T06:59:27;14.56;81.11
69324;DHT22;56470;47.350;8.718;2023-08-30T07:01:52;14.57;81.05
69324;DHT22;56470;47.350;8.718;2023-08-30T07:04:21;14.63;81.09
69324;DHT22;56470;47.350;8.718;2023-08-30T07:06:51;14.68;80.86
69324;DHT22;56470;47.350;8.718;2023-08-30T07:09:17;14.67;80.72
69324;DHT22;56470;47.350;8.718;2023-08-30T07:11:46;14.71;80.78
69324;DHT22;56470;47.350;8.718;2023-08-30T07:14:12;14.71;80.48
69324;DHT22;56470;47.350;8.718;2023-08-30T07:16:39;14.75;80.80
69324;DHT22;56470;47.350;8.718;2023-08-30T07:19:05;14.85;80.86
69324;DHT22;56470;47.350;8.718;2023-08-30T07:21:30;14.98;80.76
69324;DHT22;56470;47.350;8.718;2023-08-30T07:23:56;15.11;80.74
69324;DHT22;56470;47.350;8.718;2023-08-30T07:26:21;15.22;80.42
69324;DHT22;56470;47.350;8.718;2023-08-30T07:28:46;15.33;80.34
69324;DHT22;56470;47.350;8.718;2023-08-30T07:31:12;15.47;79.65
69324;DHT22;56470;47.350;8.718;2023-08-30T07:33:40;15.56;79.72
69324;DHT22;56470;47.350;8.718;2023-08-30T07:36:06;15.61;79.13
69324;DHT22;56470;47.350;8.718;2023-08-30T07:38:31;15.64;79.15
69324;DHT22;56470;47.350;8.718;2023-08-30T07:40:57;15.68;78.87
69324;DHT22;56470;47.350;8.718;2023-08-30T07:43:22;15.77;78.53
69324;DHT22;56470;47.350;8.718;2023-08-30T07:45:49;15.80;78.33
69324;DHT22;56470;47.350;8.718;2023-08-30T07:48:14;15.85;78.34
69324;DHT22;56470;47.350;8.718;2023-08-30T07:50:39;15.99;78.33
69324;DHT22;56470;47.350;8.718;2023-08-30T07:53:05;16.13;78.19
69324;DHT22;56470;47.350;8.718;2023-08-30T07:55:30;16.26;77.60
69324;DHT22;56470;47.350;8.718;2023-08-30T07:57:56;16.39;77.06
69324;DHT22;56470;47.350;8.718;2023-08-30T08:00:21;16.46;76.59
69324;DHT22;56470;47.350;8.718;2023-08-30T08:02:47;16.52;76.47
69324;DHT22;56470;47.350;8.718;2023-08-30T08:05:12;16.60;76.17
69324;DHT22;56470;47.350;8.718;2023-08-30T08:07:38;16.65;75.96
69324;DHT22;56470;47.350;8.718;2023-08-30T08:10:05;16.64;75.96
69324;DHT22;56470;47.350;8.718;2023-08-30T08:12:30;16.74;76.20
69324;DHT22;56470;47.350;8.718;2023-08-30T08:14:57;16.87;75.80
69324;DHT22;56470;47.350;8.718;2023-08-30T08:17:22;17.06;75.69
69324;DHT22;56470;47.350;8.718;2023-08-30T08:19:48;17.26;75.00
69324;DHT22;56470;47.350;8.718;2023-08-30T08:22:34;17.44;74.24
69324;DHT22;56470;47.350;8.718;2023-08-30T08:25:20;17.64;74.22
69324;DHT22;56470;47.350;8.718;2023-08-30T08:27:47;17.84;73.68
69324;DHT22;56470;47.350;8.718;2023-08-30T08:30:12;18.01;73.28
69324;DHT22;56470;47.350;8.718;2023-08-30T08:32:38;18.16;73.10
69324;DHT22;56470;47.350;8.718;2023-08-30T08:35:03;18.49;72.15
69324;DHT22;56470;47.350;8.718;2023-08-30T08:37:31;18.71;71.25
69324;DHT22;56470;47.350;8.718;2023-08-30T08:40:09;18.89;69.59
69324;DHT22;56470;47.350;8.718;2023-08-30T08:42:42;19.08;68.75
69324;DHT22;56470;47.350;8.718;2023-08-30T08:45:09;19.13;68.51
69324;DHT22;56470;47.350;8.718;2023-08-30T08:47:35;19.23;68.54
69324;DHT22;56470;47.350;8.718;2023-08-30T08:50:01;19.41;68.18
69324;DHT22;56470;47.350;8.718;2023-08-30T08:52:29;19.61;67.52
69324;DHT22;56470;47.350;8.718;2023-08-30T08:54:55;19.84;67.42
69324;DHT22;56470;47.350;8.718;2023-08-30T08:57:21;20.02;66.85
69324;DHT22;56470;47.350;8.718;2023-08-30T08:59:49;20.12;66.52
69324;DHT22;56470;47.350;8.718;2023-08-30T09:02:15;20.18;66.13
69324;DHT22;56470;47.350;8.718;2023-08-30T09:08:16;20.41;64.80
69324;DHT22;56470;47.350;8.718;2023-08-30T09:10:42;20.47;65.18
69324;DHT22;56470;47.350;8.718;2023-08-30T09:13:08;20.50;65.31
69324;DHT22;56470;47.350;8.718;2023-08-30T09:15:35;20.54;64.88
69324;DHT22;56470;47.350;8.718;2023-08-30T09:18:17;20.60;63.30
69324;DHT22;56470;47.350;8.718;2023-08-30T09:20:43;20.64;64.39
69324;DHT22;56470;47.350;8.718;2023-08-30T09:23:21;20.70;63.74
69324;DHT22;56470;47.350;8.718;2023-08-30T09:25:47;20.70;63.45
69324;DHT22;56470;47.350;8.718;2023-08-30T09:28:12;20.57;63.44
69324;DHT22;56470;47.350;8.718;2023-08-30T09:37:36;20.11;63.68
69324;DHT22;56470;47.350;8.718;2023-08-30T09:40:03;20.01;63.79
69324;DHT22;56470;47.350;8.718;2023-08-30T09:45:50;20.05;63.99
69324;DHT22;56470;47.350;8.718;2023-08-30T10:02:50;19.74;63.97
69324;DHT22;56470;47.350;8.718;2023-08-30T10:05:15;19.79;64.08
69324;DHT22;56470;47.350;8.718;2023-08-30T10:07:42;19.82;63.96
69324;DHT22;56470;47.350;8.718;2023-08-30T10:20:23;19.89;63.31
69324;DHT22;56470;47.350;8.718;2023-08-30T10:26:27;19.82;62.55
69324;DHT22;56470;47.350;8.718;2023-08-30T10:28:55;19.82;62.20
69324;DHT22;56470;47.350;8.718;2023-08-30T10:31:38;19.75;61.99
69324;DHT22;56470;47.350;8.718;2023-08-30T10:34:17;19.77;62.31
69324;DHT22;56470;47.350;8.718;2023-08-30T10:36:43;19.81;62.50
69324;DHT22;56470;47.350;8.718;2023-08-30T10:39:13;19.89;61.98
69324;DHT22;56470;47.350;8.718;2023-08-30T10:41:54;19.95;60.03
69324;DHT22;56470;47.350;8.718;2023-08-30T10:44:20;19.95;61.90
69324;DHT22;56470;47.350;8.718;2023-08-30T10:57:19;19.98;61.37
69324;DHT22;56470;47.350;8.718;2023-08-30T14:13:07;19.63;57.34
69324;DHT22;56470;47.350;8.718;2023-08-30T14:25:22;19.63;57.82
69324;DHT22;56470;47.350;8.718;2023-08-30T14:27:48;19.61;57.99
69324;DHT22;56470;47.350;8.718;2023-08-30T14:30:57;19.60;59.46
69324;DHT22;56470;47.350;8.718;2023-08-30T14:40:37;19.57;61.58
69324;DHT22;56470;47.350;8.718;2023-08-30T15:01:47;19.58;59.86
69324;DHT22;56470;47.350;8.718;2023-08-30T15:08:32;19.61;58.33
69324;DHT22;56470;47.350;8.718;2023-08-30T15:55:38;19.60;59.89
69324;DHT22;56470;47.350;8.718;2023-08-30T15:58:04;19.58;60.01
69324;DHT22;56470;47.350;8.718;2023-08-30T16:00:29;19.56;60.07
69324;DHT22;56470;47.350;8.718;2023-08-30T16:02:56;19.56;60.24
69324;DHT22;56470;47.350;8.718;2023-08-30T16:16:10;19.40;60.21
69324;DHT22;56470;47.350;8.718;2023-08-30T16:19:43;19.33;60.79
69324;DHT22;56470;47.350;8.718;2023-08-30T16:22:55;19.33;62.06
69324;DHT22;56470;47.350;8.718;2023-08-30T16:40:03;19.23;61.27
69324;DHT22;56470;47.350;8.718;2023-08-30T16:42:51;19.26;61.66
69324;DHT22;56470;47.350;8.718;2023-08-30T16:45:22;19.26;61.74
69324;DHT22;56470;47.350;8.718;2023-08-30T16:47:47;19.24;61.74
69324;DHT22;56470;47.350;8.718;2023-08-30T16:51:04;19.23;61.54
69324;DHT22;56470;47.350;8.718;2023-08-30T16:53:45;19.26;61.69
69324;DHT22;56470;47.350;8.718;2023-08-30T16:56:30;19.26;61.64
69324;DHT22;56470;47.350;8.718;2023-08-30T17:01:58;19.23;61.85
69324;DHT22;56470;47.350;8.718;2023-08-30T17:04:49;19.19;62.15
69324;DHT22;56470;47.350;8.718;2023-08-30T17:08:08;19.13;62.30
69324;DHT22;56470;47.350;8.718;2023-08-30T17:26:57;19.01;63.00
69324;DHT22;56470;47.350;8.718;2023-08-30T17:50:32;18.78;64.69
69324;DHT22;56470;47.350;8.718;2023-08-30T18:00:30;18.61;65.09
69324;DHT22;56470;47.350;8.718;2023-08-30T18:13:52;18.22;67.57
69324;DHT22;56470;47.350;8.718;2023-08-30T18:17:10;18.16;66.54
69324;DHT22;56470;47.350;8.718;2023-08-30T18:19:53;18.12;66.71
69324;DHT22;56470;47.350;8.718;2023-08-30T18:22:27;18.09;67.00
69324;DHT22;56470;47.350;8.718;2023-08-30T18:25:58;18.06;67.54
69324;DHT22;56470;47.350;8.718;2023-08-30T18:42:49;18.04;67.18
69324;DHT22;56470;47.350;8.718;2023-08-30T18:49:37;17.95;67.48
69324;DHT22;56470;47.350;8.718;2023-08-30T18:55:35;17.88;67.42
69324;DHT22;56470;47.350;8.718;2023-08-30T18:59:03;17.84;68.15
69324;DHT22;56470;47.350;8.718;2023-08-30T19:01:44;17.81;67.46
69324;DHT22;56470;47.350;8.718;2023-08-30T19:08:03;17.70;68.83
69324;DHT22;56470;47.350;8.718;2023-08-30T19:11:38;17.64;69.09
69324;DHT22;56470;47.350;8.718;2023-08-30T19:14:39;17.61;69.33
69324;DHT22;56470;47.350;8.718;2023-08-30T19:17:34;17.53;69.51
69324;DHT22;56470;47.350;8.718;2023-08-30T19:20:34;17.51;69.66
69324;DHT22;56470;47.350;8.718;2023-08-30T19:23:17;17.51;68.92
69324;DHT22;56470;47.350;8.718;2023-08-30T19:26:17;17.51;68.75
69324;DHT22;56470;47.350;8.718;2023-08-30T19:29:06;17.49;68.85
69324;DHT22;56470;47.350;8.718;2023-08-30T19:38:57;17.44;69.97
69324;DHT22;56470;47.350;8.718;2023-08-30T19:42:06;17.47;68.96
69324;DHT22;56470;47.350;8.718;2023-08-30T19:44:31;17.43;69.19
69324;DHT22;56470;47.350;8.718;2023-08-30T19:46:58;17.36;69.27
69324;DHT22;56470;47.350;8.718;2023-08-30T19:49:45;17.30;69.43
69324;DHT22;56470;47.350;8.718;2023-08-30T19:52:48;17.30;69.99
69324;DHT22;56470;47.350;8.718;2023-08-30T19:55:30;17.33;69.52
69324;DHT22;56470;47.350;8.718;2023-08-30T19:58:13;17.33;69.70
69324;DHT22;56470;47.350;8.718;2023-08-30T20:01:12;17.33;69.71
69324;DHT22;56470;47.350;8.718;2023-08-30T20:04:07;17.33;70.35
69324;DHT22;56470;47.350;8.718;2023-08-30T20:06:45;17.33;69.64
69324;DHT22;56470;47.350;8.718;2023-08-30T20:09:32;17.33;69.82
69324;DHT22;56470;47.350;8.718;2023-08-30T20:11:58;17.27;70.05
69324;DHT22;56470;47.350;8.718;2023-08-30T20:14:26;17.22;70.29
69324;DHT22;56470;47.350;8.718;2023-08-30T20:16:52;17.18;70.41
69324;DHT22;56470;47.350;8.718;2023-08-30T20:19:19;17.19;70.61
69324;DHT22;56470;47.350;8.718;2023-08-30T20:21:51;17.16;70.80
69324;DHT22;56470;47.350;8.718;2023-08-30T20:24:39;17.20;70.85
69324;DHT22;56470;47.350;8.718;2023-08-30T20:27:07;17.19;70.72
69324;DHT22;56470;47.350;8.718;2023-08-30T20:29:37;17.15;71.10
69324;DHT22;56470;47.350;8.718;2023-08-30T20:32:09;17.06;71.79
69324;DHT22;56470;47.350;8.718;2023-08-30T20:34:35;17.05;71.69
69324;DHT22;56470;47.350;8.718;2023-08-30T20:37:12;17.02;72.10
69324;DHT22;56470;47.350;8.718;2023-08-30T20:39:40;16.99;72.26
69324;DHT22;56470;47.350;8.718;2023-08-30T20:42:10;16.96;72.37
69324;DHT22;56470;47.350;8.718;2023-08-30T20:44:39;16.98;72.37
69324;DHT22;56470;47.350;8.718;2023-08-30T20:47:19;16.96;72.92
69324;DHT22;56470;47.350;8.718;2023-08-30T20:49:52;17.01;72.33
69324;DHT22;56470;47.350;8.718;2023-08-30T20:52:43;17.01;72.29
69324;DHT22;56470;47.350;8.718;2023-08-30T20:55:39;17.02;72.24
69324;DHT22;56470;47.350;8.718;2023-08-30T20:58:49;17.04;72.19
69324;DHT22;56470;47.350;8.718;2023-08-30T21:01:25;17.01;72.14
69324;DHT22;56470;47.350;8.718;2023-08-30T21:04:02;16.94;72.62
69324;DHT22;56470;47.350;8.718;2023-08-30T21:06:58;16.95;72.44
69324;DHT22;56470;47.350;8.718;2023-08-30T21:09:59;16.88;72.51
69324;DHT22;56470;47.350;8.718;2023-08-30T21:12:27;16.88;72.45
69324;DHT22;56470;47.350;8.718;2023-08-30T21:14:58;16.87;72.52
69324;DHT22;56470;47.350;8.718;2023-08-30T21:17:33;16.87;72.51
69324;DHT22;56470;47.350;8.718;2023-08-30T21:20:07;16.82;72.71
69324;DHT22;56470;47.350;8.718;2023-08-30T21:22:34;16.85;72.77
69324;DHT22;56470;47.350;8.718;2023-08-30T21:25:01;16.84;72.93
69324;DHT22;56470;47.350;8.718;2023-08-30T21:27:29;16.78;73.13
69324;DHT22;56470;47.350;8.718;2023-08-30T21:33:21;16.72;73.37
69324;DHT22;56470;47.350;8.718;2023-08-30T21:35:49;16.70;73.51
69324;DHT22;56470;47.350;8.718;2023-08-30T21:38:18;16.65;73.79
69324;DHT22;56470;47.350;8.718;2023-08-30T21:40:50;16.64;73.79
69324;DHT22;56470;47.350;8.718;2023-08-30T21:43:21;16.68;73.78
69324;DHT22;56470;47.350;8.718;2023-08-30T21:45:48;16.72;73.74
69324;DHT22;56470;47.350;8.718;2023-08-30T21:48:15;16.70;73.92
69324;DHT22;56470;47.350;8.718;2023-08-30T21:50:41;16.75;73.86
69324;DHT22;56470;47.350;8.718;2023-08-30T21:53:06;16.75;73.92
69324;DHT22;56470;47.350;8.718;2023-08-30T21:55:34;16.72;73.85
69324;DHT22;56470;47.350;8.718;2023-08-30T21:58:03;16.72;73.92
69324;DHT22;56470;47.350;8.718;2023-08-30T22:00:32;16.75;73.98
69324;DHT22;56470;47.350;8.718;2023-08-30T22:02:59;16.80;73.83
69324;DHT22;56470;47.350;8.718;2023-08-30T22:05:26;16.77;73.91
69324;DHT22;56470;47.350;8.718;2023-08-30T22:07:51;16.78;74.03
69324;DHT22;56470;47.350;8.718;2023-08-30T22:10:20;16.75;74.11
69324;DHT22;56470;47.350;8.718;2023-08-30T22:12:47;16.68;74.11
69324;DHT22;56470;47.350;8.718;2023-08-30T22:15:15;16.67;74.16
69324;DHT22;56470;47.350;8.718;2023-08-30T22:17:59;16.63;74.87
69324;DHT22;56470;47.350;8.718;2023-08-30T22:20:29;16.67;74.29
69324;DHT22;56470;47.350;8.718;2023-08-30T22:22:55;16.64;74.31
69324;DHT22;56470;47.350;8.718;2023-08-30T22:25:23;16.57;74.54
69324;DHT22;56470;47.350;8.718;2023-08-30T22:27:50;16.57;74.55
69324;DHT22;56470;47.350;8.718;2023-08-30T22:30:18;16.53;74.60
69324;DHT22;56470;47.350;8.718;2023-08-30T22:32:46;16.47;74.71
69324;DHT22;56470;47.350;8.718;2023-08-30T22:35:20;16.49;74.63
69324;DHT22;56470;47.350;8.718;2023-08-30T22:37:46;16.47;74.67
69324;DHT22;56470;47.350;8.718;2023-08-30T22:40:13;16.46;74.64
69324;DHT22;56470;47.350;8.718;2023-08-30T22:42:42;16.42;74.77
69324;DHT22;56470;47.350;8.718;2023-08-30T22:45:08;16.37;74.71
69324;DHT22;56470;47.350;8.718;2023-08-30T22:47:38;16.39;74.59
69324;DHT22;56470;47.350;8.718;2023-08-30T22:50:05;16.40;74.58
69324;DHT22;56470;47.350;8.718;2023-08-30T22:52:31;16.36;74.57
69324;DHT22;56470;47.350;8.718;2023-08-30T22:54:57;16.30;74.76
69324;DHT22;56470;47.350;8.718;2023-08-30T22:57:22;16.27;74.68
69324;DHT22;56470;47.350;8.718;2023-08-30T22:59:49;16.30;74.68
69324;DHT22;56470;47.350;8.718;2023-08-30T23:02:14;16.26;74.64
69324;DHT22;56470;47.350;8.718;2023-08-30T23:04:40;16.25;74.64
69324;DHT22;56470;47.350;8.718;2023-08-30T23:07:06;16.23;74.52
69324;DHT22;56470;47.350;8.718;2023-08-30T23:09:32;16.26;74.47
69324;DHT22;56470;47.350;8.718;2023-08-30T23:11:58;16.32;74.31
69324;DHT22;56470;47.350;8.718;2023-08-30T23:14:25;16.32;74.16
69324;DHT22;56470;47.350;8.718;2023-08-30T23:16:51;16.32;74.04
69324;DHT22;56470;47.350;8.718;2023-08-30T23:19:17;16.30;73.83
69324;DHT22;56470;47.350;8.718;2023-08-30T23:21:42;16.33;73.73
69324;DHT22;56470;47.350;8.718;2023-08-30T23:24:09;16.40;73.57
69324;DHT22;56470;47.350;8.718;2023-08-30T23:26:34;16.39;73.46
69324;DHT22;56470;47.350;8.718;2023-08-30T23:29:02;16.46;73.31
69324;DHT22;56470;47.350;8.718;2023-08-30T23:31:30;16.46;73.22
69324;DHT22;56470;47.350;8.718;2023-08-30T23:33:57;16.50;73.19
69324;DHT22;56470;47.350;8.718;2023-08-30T23:36:28;16.53;73.11
69324;DHT22;56470;47.350;8.718;2023-08-30T23:38:54;16.61;73.01
69324;DHT22;56470;47.350;8.718;2023-08-30T23:41:22;16.61;72.81
69324;DHT22;56470;47.350;8.718;2023-08-30T23:43:49;16.61;72.68
69324;DHT22;56470;47.350;8.718;2023-08-30T23:46:16;16.59;72.46
69324;DHT22;56470;47.350;8.718;2023-08-30T23:48:41;16.53;72.52
69324;DHT22;56470;47.350;8.718;2023-08-30T23:51:07;16.46;72.53
69324;DHT22;56470;47.350;8.718;2023-08-30T23:53:33;16.39;72.63
69324;DHT22;56470;47.350;8.718;2023-08-30T23:56:00;16.36;72.63
69324;DHT22;56470;47.350;8.718;2023-08-30T23:58:28;16.27;72.76
